createdAt,value
2022-08-21T00:01:12.522Z,97888.38
2022-08-21T00:04:21.014Z,97893.41
2022-08-21T00:07:26.321Z,97895.97
2022-08-21T00:10:30.155Z,97889.19
2022-08-21T00:13:33.862Z,97881.78
2022-08-21T00:16:38.405Z,97888.00
2022-08-21T00:19:41.236Z,97875.09
2022-08-21T00:22:45.030Z,97846.41
2022-08-21T00:25:49.518Z,97866.59
2022-08-21T00:28:53.464Z,97871.06
2022-08-21T00:31:57.018Z,97876.50
2022-08-21T00:35:00.558Z,97854.53
2022-08-21T00:38:05.843Z,97860.88
2022-08-21T00:41:16.262Z,97867.56
2022-08-21T00:44:36.775Z,97866.50
2022-08-21T00:47:40.200Z,97871.44
2022-08-21T00:51:07.775Z,97881.59
2022-08-21T00:54:18.673Z,97877.72
2022-08-21T00:57:30.690Z,97868.94
2022-08-21T01:00:37.377Z,97877.53
2022-08-21T01:03:41.071Z,97880.03
2022-08-21T01:06:49.053Z,97879.53
2022-08-21T01:09:52.545Z,97876.59
2022-08-21T01:12:56.969Z,97880.06
2022-08-21T01:16:02.108Z,97873.72
2022-08-21T01:19:05.482Z,97869.66
2022-08-21T01:22:09.012Z,97860.88
2022-08-21T01:25:15.328Z,97869.53
2022-08-21T01:28:19.034Z,97853.97
2022-08-21T01:31:24.817Z,97857.84
2022-08-21T01:34:29.460Z,97863.41
2022-08-21T01:37:33.106Z,97858.34
2022-08-21T01:40:37.591Z,97861.66
2022-08-21T01:43:42.339Z,97857.22
2022-08-21T01:46:46.804Z,97852.88
2022-08-21T01:49:50.052Z,97858.63
2022-08-21T01:52:53.654Z,97853.16
2022-08-21T01:55:57.193Z,97854.88
2022-08-21T01:59:00.095Z,97858.87
2022-08-21T02:02:03.805Z,97859.72
2022-08-21T02:05:09.457Z,97858.13
2022-08-21T02:08:13.954Z,97868.06
2022-08-21T02:11:17.919Z,97862.72
2022-08-21T02:14:31.950Z,97857.28
2022-08-21T02:17:51.763Z,97855.91
2022-08-21T02:20:56.292Z,97843.13
2022-08-21T02:24:00.589Z,97860.94
2022-08-21T02:27:04.338Z,97859.47
2022-08-21T02:30:14.252Z,97855.62
2022-08-21T02:33:17.978Z,97855.38
2022-08-21T02:36:22.211Z,97853.91
2022-08-21T02:39:27.412Z,97853.91
2022-08-21T02:42:31.670Z,97845.88
2022-08-21T02:45:35.765Z,97848.94
2022-08-21T02:48:40.460Z,97845.34
2022-08-21T02:51:44.278Z,97847.19
2022-08-21T02:54:47.727Z,97848.78
2022-08-21T02:57:51.113Z,97849.06
2022-08-21T03:00:54.313Z,97847.31
2022-08-21T03:03:57.357Z,97836.09
2022-08-21T03:07:01.523Z,97843.25
2022-08-21T03:10:08.954Z,97844.72
2022-08-21T03:13:12.419Z,97849.94
2022-08-21T03:16:18.226Z,97845.75
2022-08-21T03:19:21.761Z,97848.47
2022-08-21T03:22:25.206Z,97842.16
2022-08-21T03:25:40.316Z,97843.00
2022-08-21T03:28:43.692Z,97848.94
2022-08-21T03:31:47.716Z,97852.03
2022-08-21T03:34:52.184Z,97852.16
2022-08-21T03:37:57.161Z,97850.44
2022-08-21T03:41:01.313Z,97851.72
2022-08-21T03:44:04.386Z,97850.44
2022-08-21T03:47:07.832Z,97856.88
2022-08-21T03:50:11.869Z,97849.22
2022-08-21T03:53:18.027Z,97854.19
2022-08-21T03:56:21.879Z,97819.34
2022-08-21T03:59:26.059Z,97845.91
2022-08-21T04:02:30.618Z,97854.31
2022-08-21T04:05:34.062Z,97859.63
2022-08-21T04:08:38.182Z,97859.87
2022-08-21T04:11:41.401Z,97857.31
2022-08-21T04:14:44.180Z,97863.22
2022-08-21T04:17:47.827Z,97874.50
2022-08-21T04:20:53.687Z,97875.25
2022-08-21T04:23:57.490Z,97874.87
2022-08-21T04:27:01.036Z,97879.56
2022-08-21T04:30:05.531Z,97875.84
2022-08-21T04:33:09.348Z,97878.56
2022-08-21T04:36:13.938Z,97892.44
2022-08-21T04:39:16.931Z,97882.16
2022-08-21T04:42:21.198Z,97886.50
2022-08-21T04:45:30.075Z,97884.03
2022-08-21T04:48:36.839Z,97886.34
2022-08-21T04:51:40.736Z,97878.94
2022-08-21T04:54:46.643Z,97882.66
2022-08-21T04:57:55.095Z,97888.84
2022-08-21T05:01:00.611Z,97886.72
2022-08-21T05:04:05.968Z,97888.72
2022-08-21T05:07:16.697Z,97895.00
2022-08-21T05:10:39.937Z,97893.41
2022-08-21T05:13:43.337Z,97894.03
2022-08-21T05:16:47.080Z,97895.63
2022-08-21T05:19:50.590Z,97900.22
2022-08-21T05:22:54.819Z,97898.97
2022-08-21T05:25:59.665Z,97899.69
2022-08-21T05:29:03.065Z,97911.22
2022-08-21T05:32:11.651Z,97911.59
2022-08-21T05:35:14.970Z,97905.16
2022-08-21T05:38:18.530Z,97908.38
2022-08-21T05:41:21.761Z,97899.13
2022-08-21T05:44:25.684Z,97907.25
2022-08-21T05:47:30.209Z,97892.66
2022-08-21T05:50:33.871Z,97909.12
2022-08-21T05:53:37.800Z,97920.75
2022-08-21T05:56:41.432Z,97915.78
2022-08-21T05:59:44.469Z,97908.72
2022-08-21T06:02:48.163Z,97910.47
2022-08-21T06:05:51.843Z,97913.31
2022-08-21T06:08:55.252Z,97907.00
2022-08-21T06:11:59.165Z,97911.59
2022-08-21T06:15:02.418Z,97917.63
2022-08-21T06:18:06.698Z,97915.88
2022-08-21T06:21:10.328Z,97918.97
2022-08-21T06:24:13.816Z,97914.50
2022-08-21T06:27:18.830Z,97917.22
2022-08-21T06:30:24.132Z,97923.03
2022-08-21T06:33:31.912Z,97930.59
2022-08-21T06:36:36.319Z,97927.25
2022-08-21T06:39:45.035Z,97934.66
2022-08-21T06:42:49.981Z,97927.47
2022-08-21T06:45:53.859Z,97928.56
2022-08-21T06:48:57.689Z,97932.41
2022-08-21T06:52:01.033Z,97931.16
2022-08-21T06:55:09.652Z,97909.47
2022-08-21T06:58:13.865Z,97922.19
2022-08-21T07:01:16.904Z,97924.03
2022-08-21T07:04:21.288Z,97921.19
2022-08-21T07:07:24.927Z,97924.38
2022-08-21T07:10:31.385Z,97926.50
2022-08-21T07:13:34.687Z,97924.38
2022-08-21T07:16:38.345Z,97924.06
2022-08-21T07:19:41.865Z,97926.31
2022-08-21T07:22:48.608Z,97919.94
2022-08-21T07:25:52.645Z,97917.22
2022-08-21T07:28:57.813Z,97926.13
2022-08-21T07:32:00.991Z,97933.63
2022-08-21T07:35:05.581Z,97927.41
2022-08-21T07:38:09.844Z,97924.56
2022-08-21T07:41:19.598Z,97926.44
2022-08-21T07:44:24.409Z,97910.81
2022-08-21T07:47:41.373Z,97906.09
2022-08-21T07:50:45.356Z,97915.06
2022-08-21T07:53:51.573Z,97909.28
2022-08-21T07:56:55.109Z,97898.16
2022-08-21T07:59:59.323Z,97899.75
2022-08-21T08:03:04.000Z,97902.53
2022-08-21T08:06:14.108Z,97896.78
2022-08-21T08:09:18.592Z,97904.03
2022-08-21T08:12:22.380Z,97907.03
2022-08-21T08:15:27.740Z,97902.12
2022-08-21T08:18:31.543Z,97905.13
2022-08-21T08:21:35.389Z,97907.59
2022-08-21T08:24:41.741Z,97904.91
2022-08-21T08:27:44.308Z,97904.56
2022-08-21T08:30:47.771Z,97896.69
2022-08-21T08:33:50.448Z,97899.84
2022-08-21T08:36:55.144Z,97895.84
2022-08-21T08:39:59.258Z,97903.31
2022-08-21T08:43:03.122Z,97898.25
2022-08-21T08:46:14.889Z,97893.94
2022-08-21T08:49:25.715Z,97894.50
2022-08-21T08:52:32.985Z,97897.66
2022-08-21T08:55:44.825Z,97901.75
2022-08-21T08:58:48.548Z,97903.84
2022-08-21T09:01:52.424Z,97905.31
2022-08-21T09:04:56.282Z,97904.03
2022-08-21T09:08:23.768Z,97901.56
2022-08-21T09:11:32.345Z,97904.31
2022-08-21T09:15:01.551Z,97900.69
2022-08-21T09:18:07.905Z,97916.25
2022-08-21T09:21:40.107Z,97913.50
2022-08-21T09:24:52.157Z,97918.44
2022-08-21T09:27:55.915Z,97919.00
2022-08-21T09:31:03.604Z,97909.34
2022-08-21T09:34:10.465Z,97910.47
2022-08-21T09:37:19.603Z,97916.09
2022-08-21T09:40:58.460Z,97906.56
2022-08-21T09:44:01.442Z,97905.53
2022-08-21T09:47:07.788Z,97910.84
2022-08-21T09:50:20.968Z,97906.44
2022-08-21T09:53:35.041Z,97911.94
2022-08-21T09:57:19.375Z,97910.63
2022-08-21T10:00:32.918Z,97906.31
2022-08-21T10:03:36.345Z,97919.87
2022-08-21T10:06:42.722Z,97914.53
2022-08-21T10:09:45.972Z,97915.41
2022-08-21T10:13:21.284Z,97899.84
2022-08-21T10:16:26.765Z,97911.97
2022-08-21T10:19:53.402Z,97901.19
2022-08-21T10:23:29.165Z,97872.03
2022-08-21T10:26:54.726Z,97908.41
2022-08-21T10:30:05.464Z,97912.47
2022-08-21T10:33:58.786Z,97915.38
2022-08-21T10:37:14.778Z,97919.25
2022-08-21T10:40:39.003Z,97921.69
2022-08-21T10:47:03.794Z,97914.59
2022-08-21T10:50:19.200Z,97916.12
2022-08-21T10:54:03.175Z,97922.84
2022-08-21T10:57:14.852Z,97916.50
2022-08-21T11:00:25.619Z,97917.78
2022-08-21T11:03:39.208Z,97915.47
2022-08-21T11:06:48.505Z,97905.69
2022-08-21T11:09:53.607Z,97911.72
2022-08-21T11:13:08.881Z,97902.06
2022-08-21T11:16:21.898Z,97903.69
2022-08-21T11:20:03.568Z,97910.66
2022-08-21T11:23:16.333Z,97902.44
2022-08-21T11:26:28.438Z,97904.47
2022-08-21T11:29:36.918Z,97904.28
2022-08-21T11:32:45.793Z,97905.91
2022-08-21T11:36:05.371Z,97899.56
2022-08-21T11:39:08.858Z,97898.44
2022-08-21T11:42:21.295Z,97900.59
2022-08-21T11:45:47.406Z,97894.31
2022-08-21T11:49:09.856Z,97895.31
2022-08-21T11:52:26.744Z,97891.31
2022-08-21T11:55:35.746Z,97898.13
2022-08-21T11:58:49.970Z,97895.09
2022-08-21T12:01:55.956Z,97894.84
2022-08-21T12:05:08.615Z,97892.25
2022-08-21T12:08:28.744Z,97891.94
2022-08-21T12:11:49.638Z,97887.47
2022-08-21T12:15:25.368Z,97896.53
2022-08-21T12:18:33.095Z,97886.47
2022-08-21T12:21:49.048Z,97881.84
2022-08-21T12:24:52.969Z,97881.56
2022-08-21T12:28:08.774Z,97870.62
2022-08-21T12:31:24.591Z,97876.50
2022-08-21T12:34:37.027Z,97872.91
2022-08-21T12:37:46.994Z,97877.38
2022-08-21T12:41:00.816Z,97871.47
2022-08-21T12:44:23.383Z,97870.75
2022-08-21T12:47:41.000Z,97854.34
2022-08-21T12:50:57.909Z,97861.81
2022-08-21T12:54:01.975Z,97846.38
2022-08-21T12:57:08.609Z,97853.44
2022-08-21T13:00:17.054Z,97843.63
2022-08-21T13:03:21.045Z,97829.22
2022-08-21T13:06:25.479Z,97828.63
2022-08-21T13:09:32.847Z,97831.06
2022-08-21T13:12:39.058Z,97835.53
2022-08-21T13:15:47.634Z,97827.75
2022-08-21T13:19:07.883Z,97824.13
2022-08-21T13:22:33.296Z,97813.34
2022-08-21T13:25:38.796Z,97817.34
2022-08-21T13:28:42.556Z,97819.06
2022-08-21T13:31:56.972Z,97815.94
2022-08-21T13:35:11.414Z,97814.16
2022-08-21T13:38:16.485Z,97820.91
2022-08-21T13:41:28.480Z,97807.91
2022-08-21T13:44:33.476Z,97820.47
2022-08-21T13:47:38.628Z,97814.97
2022-08-21T13:50:43.678Z,97814.16
2022-08-21T13:53:54.673Z,97814.28
2022-08-21T13:56:58.482Z,97810.50
2022-08-21T14:00:26.709Z,97809.19
2022-08-21T14:03:46.836Z,97812.06
2022-08-21T14:06:50.863Z,97803.41
2022-08-21T14:09:56.810Z,97810.28
2022-08-21T14:13:04.548Z,97806.13
2022-08-21T14:16:23.587Z,97810.25
2022-08-21T14:19:44.215Z,97814.59
2022-08-21T14:22:49.097Z,97807.38
2022-08-21T14:25:53.039Z,97813.47
2022-08-21T14:29:01.710Z,97815.47
2022-08-21T14:32:25.320Z,97821.25
2022-08-21T14:35:31.635Z,97815.47
2022-08-21T14:38:38.454Z,97818.81
2022-08-21T14:41:43.798Z,97815.06
2022-08-21T14:44:47.203Z,97820.94
2022-08-21T14:47:50.973Z,97809.12
2022-08-21T14:51:00.354Z,97811.66
2022-08-21T14:54:04.131Z,97804.91
2022-08-21T14:57:11.525Z,97784.31
2022-08-21T15:00:18.755Z,97810.81
2022-08-21T15:03:25.021Z,97808.06
2022-08-21T15:06:28.877Z,97807.56
2022-08-21T15:09:32.123Z,97806.53
2022-08-21T15:12:37.986Z,97808.09
2022-08-21T15:15:44.133Z,97815.31
2022-08-21T15:18:47.810Z,97817.34
2022-08-21T15:21:51.347Z,97810.25
2022-08-21T15:24:54.308Z,97805.97
2022-08-21T15:27:59.452Z,97815.53
2022-08-21T15:31:03.921Z,97820.47
2022-08-21T15:34:06.549Z,97811.88
2022-08-21T15:37:09.821Z,97807.13
2022-08-21T15:40:14.405Z,97806.59
2022-08-21T15:43:29.945Z,97809.66
2022-08-21T15:46:34.796Z,97808.94
2022-08-21T15:49:41.174Z,97803.66
2022-08-21T15:52:46.932Z,97794.38
2022-08-21T15:55:52.472Z,97810.47
2022-08-21T15:59:03.194Z,97818.97
2022-08-21T16:02:10.662Z,97811.22
2022-08-21T16:05:18.176Z,97825.59
2022-08-21T16:08:24.196Z,97820.84
2022-08-21T16:11:29.284Z,97818.53
2022-08-21T16:14:35.318Z,97813.87
2022-08-21T16:17:44.685Z,97813.03
2022-08-21T16:20:51.489Z,97696.91
2022-08-21T16:23:55.199Z,97809.12
2022-08-21T16:27:00.868Z,97768.69
2022-08-21T16:30:09.045Z,97705.75
2022-08-21T16:33:38.569Z,97795.12
2022-08-21T16:36:46.756Z,97754.13
2022-08-21T16:39:53.325Z,97794.22
2022-08-21T16:42:58.889Z,97794.91
2022-08-21T16:46:05.243Z,97795.78
2022-08-21T16:49:12.627Z,97797.19
2022-08-21T16:52:18.012Z,97794.75
2022-08-21T16:55:22.871Z,97794.03
2022-08-21T16:58:32.260Z,97703.47
2022-08-21T17:01:38.081Z,97790.28
2022-08-21T17:04:42.047Z,97786.72
2022-08-21T17:07:47.259Z,97794.31
2022-08-21T17:10:51.964Z,97793.13
2022-08-21T17:13:58.668Z,97792.63
2022-08-21T17:17:05.671Z,97793.19
2022-08-21T17:20:12.486Z,97796.47
2022-08-21T17:23:16.732Z,97793.56
2022-08-21T17:26:20.589Z,97793.88
2022-08-21T17:29:30.608Z,97787.69
2022-08-21T17:32:34.240Z,97780.91
2022-08-21T17:35:38.897Z,97779.75
2022-08-21T17:38:42.390Z,97788.97
2022-08-21T17:41:47.054Z,97794.97
2022-08-21T17:44:57.715Z,97793.47
2022-08-21T17:48:01.029Z,97799.88
2022-08-21T17:51:05.530Z,97802.94
2022-08-21T17:54:11.750Z,97807.97
2022-08-21T17:57:23.075Z,97805.50
2022-08-21T18:00:27.439Z,97810.38
2022-08-21T18:03:32.401Z,97809.16
2022-08-21T18:06:42.709Z,97812.91
2022-08-21T18:09:47.828Z,97800.53
2022-08-21T18:12:51.584Z,97810.56
2022-08-21T18:15:57.189Z,97807.53
2022-08-21T18:19:04.133Z,97813.00
2022-08-21T18:22:10.968Z,97806.66
2022-08-21T18:25:16.404Z,97811.00
2022-08-21T18:28:21.320Z,97793.09
2022-08-21T18:31:24.892Z,97806.94
2022-08-21T18:34:49.988Z,97808.66
2022-08-21T18:38:16.055Z,97803.19
2022-08-21T18:41:39.955Z,97799.63
2022-08-21T18:45:04.630Z,97810.09
2022-08-21T18:48:29.446Z,97819.91
2022-08-21T18:51:33.101Z,97827.06
2022-08-21T18:54:39.954Z,97807.38
2022-08-21T18:57:47.352Z,97812.09
2022-08-21T19:00:55.568Z,97814.72
2022-08-21T19:04:00.101Z,97814.97
2022-08-21T19:07:07.560Z,97810.41
2022-08-21T19:10:24.599Z,97812.22
2022-08-21T19:13:31.936Z,97811.38
2022-08-21T19:16:35.475Z,97809.25
2022-08-21T19:19:40.094Z,97812.66
2022-08-21T19:22:52.988Z,97802.72
2022-08-21T19:26:01.090Z,97777.97
2022-08-21T19:29:09.388Z,97797.28
2022-08-21T19:32:13.517Z,97788.38
2022-08-21T19:35:18.702Z,97792.72
2022-08-21T19:38:25.941Z,97805.94
2022-08-21T19:41:33.889Z,97795.88
2022-08-21T19:44:43.159Z,97790.16
2022-08-21T19:47:51.194Z,97796.75
2022-08-21T19:50:56.295Z,97785.38
2022-08-21T19:54:01.509Z,97787.38
2022-08-21T19:57:07.892Z,97716.28
2022-08-21T20:00:13.819Z,97778.47
2022-08-21T20:03:22.920Z,97782.66
2022-08-21T20:06:26.926Z,97786.38
2022-08-21T20:09:31.878Z,97780.78
2022-08-21T20:12:36.379Z,97778.78
2022-08-21T20:15:40.993Z,97777.34
2022-08-21T20:18:45.985Z,97782.66
2022-08-21T20:21:51.230Z,97780.66
2022-08-21T20:24:55.734Z,97770.31
2022-08-21T20:27:58.916Z,97779.81
2022-08-21T20:31:05.606Z,97772.91
2022-08-21T20:34:13.074Z,97766.56
2022-08-21T20:37:35.631Z,97762.38
2022-08-21T20:40:41.664Z,97764.72
2022-08-21T20:43:45.861Z,97752.03
2022-08-21T20:46:49.442Z,97763.25
2022-08-21T20:49:59.461Z,97753.47
2022-08-21T20:53:27.475Z,97751.75
2022-08-21T20:56:57.214Z,97748.16
2022-08-21T21:00:14.580Z,97747.91
2022-08-21T21:03:42.210Z,97743.31
2022-08-21T21:06:50.130Z,97745.16
2022-08-21T21:09:55.666Z,97747.03
2022-08-21T21:13:10.800Z,97742.69
2022-08-21T21:16:24.009Z,97746.56
2022-08-21T21:19:37.194Z,97739.50
2022-08-21T21:23:14.595Z,97748.84
2022-08-21T21:26:39.217Z,97748.38
2022-08-21T21:29:59.049Z,97744.78
2022-08-21T21:33:06.641Z,97745.50
2022-08-21T21:36:51.536Z,97749.25
2022-08-21T21:40:02.629Z,97742.78
2022-08-21T21:43:06.105Z,97748.38
2022-08-21T21:46:28.411Z,97748.38
2022-08-21T21:49:41.052Z,97756.97
2022-08-21T21:53:13.919Z,97765.44
2022-08-21T21:56:48.354Z,97750.22
2022-08-21T22:00:13.159Z,97743.94
2022-08-21T22:03:24.119Z,97743.31
2022-08-21T22:06:35.233Z,97747.03
2022-08-21T22:09:47.350Z,97735.69
2022-08-21T22:16:51.369Z,97749.75
2022-08-21T22:19:55.915Z,97747.94
2022-08-21T22:23:00.693Z,97748.66
2022-08-21T22:26:11.309Z,97737.94
2022-08-21T22:29:18.847Z,97743.13
2022-08-21T22:32:29.538Z,97733.34
2022-08-21T22:35:33.426Z,97736.09
2022-08-21T22:38:39.994Z,97733.09
2022-08-21T22:41:48.153Z,97728.38
2022-08-21T22:44:57.621Z,97721.59
2022-08-21T22:48:22.401Z,97731.97
2022-08-21T22:51:39.273Z,97724.81
2022-08-21T22:54:45.373Z,97714.16
2022-08-21T22:58:01.141Z,97713.69
2022-08-21T23:01:31.898Z,97689.88
2022-08-21T23:04:48.810Z,97718.00
2022-08-21T23:07:55.450Z,97721.59
2022-08-21T23:11:23.484Z,97721.59
2022-08-21T23:14:29.754Z,97719.72
2022-08-21T23:17:37.158Z,97718.00
2022-08-21T23:20:56.475Z,97722.47
2022-08-21T23:24:20.619Z,97717.44
2022-08-21T23:27:49.396Z,97718.28
2022-08-21T23:31:09.076Z,97683.69
2022-08-21T23:34:15.939Z,97719.69
2022-08-21T23:37:53.909Z,97714.31
2022-08-21T23:41:11.013Z,97715.19
2022-08-21T23:44:42.595Z,97722.63
2022-08-21T23:48:08.331Z,97719.91
2022-08-21T23:51:44.135Z,97722.63
2022-08-21T23:55:17.443Z,97722.75
2022-08-21T23:58:33.071Z,97718.19
